Time;durP1;ratioP1;P1;durP2;ratioP2;P2;SDS_P1;SDS_P2;PMS_P1;PMS_P2;Temp;Humidity;BMP_temperature;BMP_pressure;BME280_temperature;BME280_humidity;BME280_pressure;Samples;Min_cycle;Max_cycle;Signal;HPM_P1;HPM_P2
2022/04/23 00:00:14;;;;;;;16.17;13.05;;;11.90;99.90;;;;;;4780020;30;20108;-56
2022/04/23 00:02:42;;;;;;;17.38;12.85;;;11.60;99.90;;;;;;4780057;30;20047;-55
2022/04/23 00:05:09;;;;;;;16.23;13.18;;;11.70;99.90;;;;;;4779864;30;20376;-56
2022/04/23 00:07:34;;;;;;;16.50;13.93;;;11.60;99.90;;;;;;4779982;30;20047;-55
2022/04/23 00:10:00;;;;;;;16.25;13.77;;;11.80;99.90;;;;;;4780276;30;20066;-55
2022/04/23 00:12:26;;;;;;;18.38;13.70;;;11.70;99.90;;;;;;4763603;30;20727;-55
2022/04/23 00:14:53;;;;;;;19.10;13.63;;;;;;;;;;4764156;30;20377;-56
2022/04/23 00:17:19;;;;;;;21.42;13.93;;;11.50;99.90;;;;;;4763619;30;20064;-55
2022/04/23 00:19:46;;;;;;;19.20;14.13;;;11.50;99.90;;;;;;4783539;30;20063;-56
2022/04/23 00:22:13;;;;;;;19.90;14.38;;;11.40;99.90;;;;;;4767445;30;20058;-55
2022/04/23 00:24:39;;;;;;;15.80;13.57;;;11.70;99.90;;;;;;4767394;30;20047;-56
2022/04/23 00:27:06;;;;;;;18.15;14.32;;;11.60;99.90;;;;;;4783250;30;20055;-55
2022/04/23 00:29:31;;;;;;;17.45;14.43;;;11.40;99.90;;;;;;4783496;30;20381;-56
2022/04/23 00:31:57;;;;;;;19.20;14.68;;;11.50;99.90;;;;;;4783286;30;20043;-55
2022/04/23 00:34:23;;;;;;;17.27;14.63;;;11.50;99.90;;;;;;4783201;30;20047;-56
2022/04/23 00:36:48;;;;;;;19.23;14.93;;;11.00;99.90;;;;;;4783337;30;20321;-56
2022/04/23 00:39:14;;;;;;;18.52;14.98;;;11.50;99.90;;;;;;4783322;30;20047;-55
2022/04/23 00:41:51;;;;;;;18.65;14.68;;;11.40;99.90;;;;;;4782929;30;20119;-55
2022/04/23 00:44:18;;;;;;;17.83;14.73;;;11.40;99.90;;;;;;4782754;30;20219;-55
2022/04/23 00:46:45;;;;;;;17.83;14.57;;;11.40;99.90;;;;;;4783054;30;20047;-55
2022/04/23 00:49:12;;;;;;;17.83;14.85;;;11.50;99.90;;;;;;4783148;30;20115;-55
2022/04/23 00:51:41;;;;;;;18.10;15.10;;;11.60;99.90;;;;;;4782911;30;20059;-55
2022/04/23 00:54:09;;;;;;;16.50;14.40;;;11.50;99.90;;;;;;4766615;30;20090;-55
2022/04/23 00:56:36;;;;;;;17.80;15.13;;;11.50;99.90;;;;;;4782942;30;20051;-55
2022/04/23 00:59:10;;;;;;;16.52;14.73;;;11.30;99.90;;;;;;4782748;30;20043;-55
2022/04/23 01:01:36;;;;;;;19.23;14.98;;;11.50;99.90;;;;;;4776910;30;20082;-56
2022/04/23 01:04:02;;;;;;;18.67;15.23;;;11.30;99.90;;;;;;4787103;30;20047;-54
2022/04/23 01:06:32;;;;;;;18.95;15.60;;;11.30;99.90;;;;;;4781247;30;20162;-56
2022/04/23 01:08:58;;;;;;;18.50;14.70;;;11.30;99.90;;;;;;4782629;30;20055;-56
2022/04/23 01:11:24;;;;;;;17.55;15.40;;;11.40;99.90;;;;;;4781397;30;20079;-55
2022/04/23 01:13:51;;;;;;;18.45;15.15;;;11.20;99.90;;;;;;4781276;30;20109;-55
2022/04/23 01:16:18;;;;;;;19.23;15.27;;;11.00;99.90;;;;;;4781413;30;20195;-55
2022/04/23 01:18:44;;;;;;;17.98;15.32;;;10.70;99.90;;;;;;4782701;30;20061;-55
2022/04/23 01:21:10;;;;;;;17.38;14.60;;;;;;;;;;4782379;30;20345;-55
2022/04/23 01:23:41;;;;;;;19.05;14.82;;;11.20;99.90;;;;;;4781896;30;20333;-55
2022/04/23 01:26:08;;;;;;;17.55;14.70;;;;;;;;;;4782554;30;20162;-55
2022/04/23 01:28:37;;;;;;;18.33;15.38;;;11.10;99.90;;;;;;4782576;30;20047;-55
2022/04/23 01:31:04;;;;;;;20.55;15.70;;;11.10;99.90;;;;;;4782524;30;20058;-55
2022/04/23 01:33:32;;;;;;;17.35;15.48;;;11.10;99.90;;;;;;4766102;30;20056;-55
2022/04/23 01:35:58;;;;;;;19.27;15.10;;;;;;;;;;4766681;30;20048;-56
2022/04/23 01:38:24;;;;;;;18.30;15.32;;;11.00;99.90;;;;;;4781581;30;20078;-55
2022/04/23 01:40:50;;;;;;;17.83;14.82;;;11.00;99.90;;;;;;4782564;30;20047;-55
2022/04/23 01:43:16;;;;;;;18.75;15.10;;;;;;;;;;4782119;30;20103;-58
2022/04/23 01:45:41;;;;;;;19.90;14.73;;;11.30;99.90;;;;;;4782309;30;20040;-58
2022/04/23 01:48:07;;;;;;;18.88;14.73;;;11.00;99.90;;;;;;4782231;30;20079;-58
2022/04/23 01:50:34;;;;;;;18.48;15.13;;;10.90;99.90;;;;;;4782092;30;20085;-57
2022/04/23 01:53:01;;;;;;;20.38;15.40;;;10.80;99.90;;;;;;4781634;30;20226;-58
2022/04/23 01:55:27;;;;;;;18.58;14.57;;;10.80;99.90;;;;;;4782115;30;20083;-58
2022/04/23 01:57:52;;;;;;;20.60;15.45;;;10.80;99.90;;;;;;4782099;30;20054;-58
2022/04/23 02:00:18;;;;;;;17.90;14.70;;;10.80;99.90;;;;;;4781702;30;20039;-57
2022/04/23 02:02:46;;;;;;;16.35;14.30;;;11.30;99.90;;;;;;4781832;30;20054;-58
2022/04/23 02:05:11;;;;;;;16.20;14.45;;;11.00;99.90;;;;;;4781805;30;20081;-58
2022/04/23 02:07:42;;;;;;;16.50;14.25;;;10.90;99.90;;;;;;4781566;30;20238;-58
2022/04/23 02:10:12;;;;;;;16.67;14.68;;;10.70;99.90;;;;;;4781817;30;20043;-55
2022/04/23 02:12:39;;;;;;;16.50;14.50;;;10.90;99.90;;;;;;4781501;30;20055;-55
2022/04/23 02:15:13;;;;;;;16.80;14.73;;;10.80;99.90;;;;;;4780594;30;20064;-55
2022/04/23 02:17:41;;;;;;;18.60;14.30;;;10.70;99.90;;;;;;4781790;30;20048;-54
2022/04/23 02:20:12;;;;;;;20.58;15.10;;;10.70;99.90;;;;;;4780487;30;20047;-55
2022/04/23 02:22:38;;;;;;;16.80;14.38;;;;;;;;;;4781261;30;20321;-55
2022/04/23 02:25:05;;;;;;;18.77;14.80;;;10.70;99.90;;;;;;4781561;30;20126;-55
2022/04/23 02:27:41;;;;;;;20.10;14.73;;;10.70;99.90;;;;;;4781342;30;20306;-56
2022/04/23 02:30:07;;;;;;;;;;;10.70;99.90;;;;;;4781559;30;20060;-55
2022/04/23 02:32:33;;;;;;;16.90;14.15;;;10.60;99.90;;;;;;4765364;30;19917;-55
2022/04/23 02:34:58;;;;;;;16.85;14.13;;;10.50;99.90;;;;;;4781545;30;20313;-55
2022/04/23 02:37:27;;;;;;;16.05;14.27;;;10.60;99.90;;;;;;4779538;30;20063;-55
2022/04/23 02:39:52;;;;;;;16.45;13.77;;;10.50;99.90;;;;;;4765390;30;20115;-55
2022/04/23 02:42:19;;;;;;;15.73;13.93;;;;;;;;;;4780654;30;20052;-55
2022/04/23 02:44:45;;;;;;;17.83;13.85;;;;;;;;;;4781261;30;20287;-55
2022/04/23 02:47:11;;;;;;;16.00;13.73;;;10.50;99.90;;;;;;4780738;30;20051;-55
2022/04/23 02:49:37;;;;;;;16.13;14.40;;;10.50;99.90;;;;;;4781133;30;20103;-55
2022/04/23 02:52:03;;;;;;;14.45;12.95;;;10.30;99.90;;;;;;4779583;30;20051;-54
2022/04/23 02:54:29;;;;;;;15.20;13.60;;;10.50;99.90;;;;;;4780964;30;20048;-55
2022/04/23 02:56:55;;;;;;;15.45;13.35;;;10.40;99.90;;;;;;4781005;30;20075;-55
2022/04/23 02:59:21;;;;;;;15.60;13.85;;;11.00;99.90;;;;;;4780577;30;20050;-55
2022/04/23 03:01:47;;;;;;;16.67;13.63;;;10.60;99.90;;;;;;4780864;30;20079;-55
2022/04/23 03:04:15;;;;;;;18.50;14.00;;;10.30;99.90;;;;;;4781008;30;20062;-55
2022/04/23 03:06:41;;;;;;;16.40;13.25;;;;;;;;;;4780498;30;20078;-55
2022/04/23 03:09:07;;;;;;;18.13;13.65;;;;;;;;;;4780776;30;20039;-54
2022/04/23 03:11:33;;;;;;;18.75;12.93;;;10.20;99.90;;;;;;4779395;30;20051;-55
2022/04/23 03:13:58;;;;;;;14.23;12.65;;;10.30;99.90;;;;;;4780537;30;20131;-55
2022/04/23 03:16:28;;;;;;;15.75;13.32;;;10.20;99.90;;;;;;4780259;30;20047;-55
2022/04/23 03:18:56;;;;;;;15.75;13.13;;;10.30;99.90;;;;;;4780729;30;20089;-55
2022/04/23 03:21:22;;;;;;;17.58;12.98;;;10.20;99.90;;;;;;4780352;30;20055;-55
2022/04/23 03:23:48;;;;;;;16.60;13.25;;;;;;;;;;4779749;30;20082;-55
2022/04/23 03:26:14;;;;;;;16.13;12.65;;;10.10;99.90;;;;;;4779223;30;20051;-55
2022/04/23 03:28:39;;;;;;;18.95;13.05;;;10.60;99.90;;;;;;4780316;30;20062;-54
2022/04/23 03:31:05;;;;;;;17.85;13.55;;;10.10;99.90;;;;;;4780753;30;20048;-54
2022/04/23 03:33:30;;;;;;;16.83;13.43;;;9.70;99.90;;;;;;4780442;30;20345;-55
2022/04/23 03:35:56;;;;;;;16.52;13.10;;;10.00;99.90;;;;;;4780169;30;20210;-55
2022/04/23 03:38:22;;;;;;;17.42;13.50;;;9.80;99.90;;;;;;4780225;30;20067;-54
2022/04/23 03:40:53;;;;;;;14.90;12.57;;;10.60;99.90;;;;;;4780358;30;20043;-55
2022/04/23 03:43:20;;;;;;;15.48;13.02;;;10.10;99.90;;;;;;4778844;30;20058;-55
2022/04/23 03:45:47;;;;;;;16.15;13.07;;;10.30;99.90;;;;;;4780414;30;20043;-55
2022/04/23 03:48:14;;;;;;;17.00;13.32;;;10.00;99.90;;;;;;4779739;30;20055;-55
2022/04/23 03:50:42;;;;;;;14.88;12.73;;;9.90;99.90;;;;;;4780164;30;20043;-54
2022/04/23 03:53:09;;;;;;;19.20;12.57;;;9.80;99.90;;;;;;4779302;30;20047;-54
2022/04/23 03:55:35;;;;;;;14.23;11.82;;;9.80;99.90;;;;;;4780269;30;20110;-55
2022/04/23 03:58:01;;;;;;;14.68;11.48;;;9.40;99.90;;;;;;4780168;30;20325;-54
2022/04/23 04:00:28;;;;;;;15.18;11.52;;;9.80;99.90;;;;;;4779806;30;20056;-55
2022/04/23 04:02:55;;;;;;;13.60;11.27;;;9.90;99.90;;;;;;4779821;30;20043;-54
2022/04/23 04:05:22;;;;;;;14.43;11.57;;;10.00;99.90;;;;;;4780022;30;20111;-55
2022/04/23 04:07:48;;;;;;;18.25;11.00;;;9.80;99.90;;;;;;4778962;30;20478;-55
2022/04/23 04:10:18;;;;;;;16.35;11.65;;;9.30;99.90;;;;;;4779855;30;20387;-54
2022/04/23 04:12:44;;;;;;;13.95;10.98;;;9.80;99.90;;;;;;4779804;30;20135;-54
2022/04/23 04:15:11;;;;;;;12.70;10.50;;;9.80;99.90;;;;;;4780107;30;20056;-55
2022/04/23 04:17:39;;;;;;;12.57;10.95;;;10.10;99.90;;;;;;4779597;30;20082;-55
2022/04/23 04:20:13;;;;;;;13.77;10.75;;;9.50;99.90;;;;;;4764073;30;20348;-55
2022/04/23 04:22:40;;;;;;;14.35;11.02;;;9.70;99.90;;;;;;4779774;30;20123;-54
2022/04/23 04:25:06;;;;;;;12.90;10.20;;;9.00;99.90;;;;;;4779757;30;20073;-53
2022/04/23 04:27:33;;;;;;;12.45;10.75;;;9.70;99.90;;;;;;4779904;30;20114;-54
2022/04/23 04:30:00;;;;;;;12.20;10.38;;;;;;;;;;4779833;30;20048;-55
2022/04/23 04:32:25;;;;;;;13.20;10.38;;;9.50;99.90;;;;;;4779378;30;20286;-54
2022/04/23 04:34:51;;;;;;;13.82;10.20;;;9.80;99.90;;;;;;4779875;30;20047;-55
2022/04/23 04:37:17;;;;;;;12.10;10.35;;;9.70;99.90;;;;;;4779640;30;20055;-54
2022/04/23 04:39:43;;;;;;;12.27;9.90;;;10.20;99.90;;;;;;4779653;30;20086;-55
2022/04/23 04:42:10;;;;;;;12.65;10.00;;;9.80;99.90;;;;;;4779176;30;20198;-54
2022/04/23 04:44:36;;;;;;;10.75;9.63;;;10.00;99.90;;;;;;4778531;30;20051;-55
2022/04/23 04:47:02;;;;;;;12.90;9.70;;;9.70;99.90;;;;;;4760611;30;20084;-55
2022/04/23 04:49:28;;;;;;;13.88;9.70;;;9.10;99.90;;;;;;4745954;30;20071;-55
2022/04/23 04:51:54;;;;;;;12.40;9.10;;;10.40;99.90;;;;;;4760504;30;20071;-55
2022/04/23 04:54:21;;;;;;;10.70;9.48;;;9.70;99.90;;;;;;4761623;30;20048;-55
2022/04/23 04:56:51;;;;;;;10.70;9.40;;;9.60;99.90;;;;;;4761853;30;20075;-54
2022/04/23 04:59:17;;;;;;;11.38;9.70;;;9.10;99.90;;;;;;4760334;30;20056;-54
2022/04/23 05:01:43;;;;;;;11.27;9.57;;;9.50;99.90;;;;;;4745721;30;20056;-54
2022/04/23 05:04:09;;;;;;;10.75;9.20;;;9.40;99.90;;;;;;4762529;30;20044;-54
2022/04/23 05:06:35;;;;;;;9.63;8.57;;;9.50;99.90;;;;;;4764900;30;20043;-53
2022/04/23 05:09:01;;;;;;;12.15;9.30;;;9.70;99.90;;;;;;4763881;30;20067;-54
2022/04/23 05:11:26;;;;;;;13.50;9.30;;;9.80;99.90;;;;;;4764776;30;20106;-54
2022/04/23 05:13:52;;;;;;;10.73;8.70;;;9.80;99.90;;;;;;4776372;30;20101;-54
2022/04/23 05:16:18;;;;;;;10.88;8.30;;;;;;;;;;4782078;30;20321;-54
2022/04/23 05:18:44;;;;;;;9.50;8.50;;;;;;;;;;4782525;30;20048;-55
2022/04/23 05:21:11;;;;;;;9.05;8.10;;;11.40;99.90;;;;;;4782255;30;20333;-55
2022/04/23 05:23:37;;;;;;;9.30;8.05;;;11.90;99.90;;;;;;4782696;30;20079;-55
2022/04/23 05:26:03;;;;;;;9.15;8.18;;;12.60;99.90;;;;;;4752023;30;20059;-55
2022/04/23 05:28:30;;;;;;;9.55;7.90;;;12.70;99.90;;;;;;4782022;30;20326;-55
2022/04/23 05:30:56;;;;;;;8.75;7.80;;;;;;;;;;4781029;30;20054;-56
2022/04/23 05:33:22;;;;;;;9.27;7.90;;;;;;;;;;4782073;30;20043;-56
2022/04/23 05:35:48;;;;;;;12.27;7.97;;;13.30;99.90;;;;;;4782393;30;20065;-56
2022/04/23 05:38:14;;;;;;;10.15;8.00;;;;;;;;;;4782065;30;20211;-56
2022/04/23 05:40:40;;;;;;;8.77;7.78;;;13.90;99.90;;;;;;4766311;30;20047;-56
2022/04/23 05:43:06;;;;;;;10.10;7.38;;;14.00;99.90;;;;;;4782047;30;20040;-56
2022/04/23 05:45:32;;;;;;;9.95;7.50;;;14.30;99.90;;;;;;4766230;30;20055;-56
2022/04/23 05:47:58;;;;;;;10.80;8.00;;;14.70;99.90;;;;;;4782099;30;20101;-56
2022/04/23 05:50:24;;;;;;;12.65;8.20;;;14.50;99.90;;;;;;4765870;30;20237;-56
2022/04/23 05:52:50;;;;;;;8.00;7.20;;;15.20;99.90;;;;;;4781563;30;20043;-56
2022/04/23 05:55:16;;;;;;;12.18;8.38;;;15.30;98.40;;;;;;4781822;30;20044;-56
2022/04/23 05:57:41;;;;;;;9.32;7.47;;;15.50;96.30;;;;;;4781903;30;20078;-56
2022/04/23 06:00:09;;;;;;;10.05;7.88;;;15.70;94.70;;;;;;4781315;30;20337;-57
2022/04/23 06:02:35;;;;;;;11.40;8.30;;;15.50;93.60;;;;;;4781693;30;20105;-56
2022/04/23 06:05:02;;;;;;;9.55;7.97;;;15.80;94.40;;;;;;4781806;30;20083;-56
2022/04/23 06:07:28;;;;;;;10.43;8.23;;;;;;;;;;4765451;30;20060;-56
2022/04/23 06:09:54;;;;;;;10.55;8.52;;;15.50;92.80;;;;;;4750947;30;20062;-56
2022/04/23 06:12:20;;;;;;;11.38;8.20;;;15.50;93.10;;;;;;4781141;30;20048;-57
2022/04/23 06:14:46;;;;;;;9.95;8.70;;;15.20;84.00;;;;;;4765369;30;20072;-57
2022/04/23 06:17:12;;;;;;;15.23;8.32;;;15.30;92.40;;;;;;4780333;30;20056;-57
2022/04/23 06:19:39;;;;;;;11.13;8.43;;;15.70;91.20;;;;;;4781453;30;20291;-56
2022/04/23 06:22:05;;;;;;;9.32;8.35;;;15.70;89.10;;;;;;4781705;30;20086;-56
2022/04/23 06:24:31;;;;;;;9.80;8.80;;;15.70;88.90;;;;;;4765498;30;20063;-56
2022/04/23 06:26:57;;;;;;;12.27;8.82;;;16.20;86.70;;;;;;4781231;30;20076;-57
2022/04/23 06:29:23;;;;;;;11.70;8.50;;;;;;;;;;4780705;30;20067;-57
2022/04/23 06:31:49;;;;;;;21.13;9.50;;;16.60;86.60;;;;;;4765302;30;20237;-56
2022/04/23 06:34:15;;;;;;;11.15;9.10;;;17.00;83.70;;;;;;4781046;30;20111;-56
2022/04/23 06:36:41;;;;;;;11.00;9.02;;;16.80;85.10;;;;;;4780866;30;20321;-56
2022/04/23 06:39:07;;;;;;;15.07;9.52;;;16.30;84.60;;;;;;4780906;30;20054;-56
2022/04/23 06:41:33;;;;;;;14.52;9.82;;;15.90;87.00;;;;;;4780531;30;20051;-56
2022/04/23 06:43:59;;;;;;;16.20;9.35;;;16.30;86.20;;;;;;4764509;30;20237;-56
2022/04/23 06:46:25;;;;;;;12.38;9.57;;;;;;;;;;4780707;30;20050;-56
2022/04/23 06:48:50;;;;;;;10.73;9.50;;;16.20;85.00;;;;;;4779909;30;20048;-56
2022/04/23 06:51:16;;;;;;;14.13;9.90;;;16.60;83.60;;;;;;4779709;30;20198;-56
2022/04/23 06:53:42;;;;;;;10.48;9.38;;;17.30;80.20;;;;;;4781153;30;20105;-57
2022/04/23 06:56:08;;;;;;;14.23;9.73;;;;;;;;;;4780573;30;20044;-57
2022/04/23 06:58:34;;;;;;;10.93;9.30;;;17.00;80.30;;;;;;4780519;30;20115;-57
2022/04/23 07:01:01;;;;;;;11.63;9.48;;;17.40;80.60;;;;;;4765092;30;20056;-57
2022/04/23 07:03:27;;;;;;;20.13;9.70;;;17.20;60.90;;;;;;4780388;30;20368;-57
2022/04/23 07:05:53;;;;;;;11.73;10.30;;;16.90;80.30;;;;;;4774447;30;20319;-57
2022/04/23 07:08:18;;;;;;;12.35;9.70;;;16.50;81.00;;;;;;4779315;30;20065;-56
2022/04/23 07:10:44;;;;;;;15.25;9.90;;;16.20;81.90;;;;;;4779474;30;20348;-57
2022/04/23 07:13:11;;;;;;;15.30;10.20;;;;;;;;;;4778748;30;20059;-57
2022/04/23 07:15:38;;;;;;;15.77;10.45;;;16.30;81.50;;;;;;4763473;30;20063;-57
2022/04/23 07:18:04;;;;;;;15.75;10.40;;;16.30;77.50;;;;;;4779148;30;20104;-57
2022/04/23 07:20:29;;;;;;;23.17;10.90;;;16.90;69.90;;;;;;4779120;30;20047;-57
2022/04/23 07:25:40;;;;;;;14.63;10.77;;;16.70;81.30;;;;;;4761619;30;20048;-57
2022/04/23 07:28:07;;;;;;;12.52;11.15;;;16.80;61.70;;;;;;4745483;30;20121;-57
2022/04/23 07:30:34;;;;;;;14.90;10.73;;;17.10;80.70;;;;;;4761820;30;20107;-57
2022/04/23 07:32:59;;;;;;;24.77;10.93;;;16.90;78.70;;;;;;4761709;30;20083;-57
2022/04/23 07:38:19;;;;;;;17.00;9.82;;;16.20;74.00;;;;;;4761128;30;20126;-58
2022/04/23 07:40:49;;;;;;;15.32;10.98;;;16.30;80.20;;;;;;4760932;30;20266;-58
2022/04/23 07:43:16;;;;;;;18.50;10.73;;;16.40;79.20;;;;;;4761259;30;20040;-56
2022/04/23 07:45:45;;;;;;;13.90;10.55;;;16.50;71.10;;;;;;4761362;30;20052;-58
2022/04/23 07:48:12;;;;;;;15.15;9.73;;;16.00;63.20;;;;;;4745284;30;20060;-56
2022/04/23 07:50:40;;;;;;;27.25;9.95;;;15.80;78.20;;;;;;4773257;30;20075;-57
2022/04/23 07:53:11;;;;;;;20.80;9.88;;;15.60;82.10;;;;;;4762782;30;20060;-56
2022/04/23 07:55:38;;;;;;;15.95;9.57;;;15.30;80.60;;;;;;4778681;30;20215;-56
2022/04/23 07:58:05;;;;;;;18.67;10.32;;;15.30;73.20;;;;;;4778861;30;20035;-57
2022/04/23 08:00:31;;;;;;;30.35;10.20;;;15.20;66.50;;;;;;4762891;30;20228;-56
2022/04/23 08:02:58;;;;;;;39.80;9.73;;;15.10;67.60;;;;;;4761039;30;20036;-58
2022/04/23 08:05:24;;;;;;;14.43;9.02;;;;;;;;;;4744714;30;20056;-58
2022/04/23 08:07:50;;;;;;;15.45;8.48;;;15.40;85.70;;;;;;4760923;30;20048;-59
2022/04/23 08:10:16;;;;;;;15.05;8.90;;;15.80;84.60;;;;;;4760823;30;20226;-59
2022/04/23 08:12:42;;;;;;;20.50;9.18;;;15.60;84.10;;;;;;4760939;30;20303;-58
2022/04/23 08:15:09;;;;;;;15.02;8.55;;;15.70;74.40;;;;;;4760106;30;20056;-58
2022/04/23 08:17:34;;;;;;;20.95;9.43;;;15.40;84.30;;;;;;4745319;30;20056;-59
2022/04/23 08:20:00;;;;;;;16.02;9.45;;;;;;;;;;4751713;30;20048;-59
2022/04/23 08:22:26;;;;;;;27.02;9.85;;;15.20;84.20;;;;;;4778686;30;20683;-59
2022/04/23 08:24:52;;;;;;;21.88;8.98;;;15.00;67.40;;;;;;4779144;30;20054;-58
2022/04/23 08:27:18;;;;;;;17.20;9.63;;;14.80;77.30;;;;;;4762410;30;20055;-58
2022/04/23 08:32:28;;;;;;;20.90;9.45;;;14.90;86.10;;;;;;4778181;30;20068;-58
2022/04/23 08:34:53;;;;;;;19.45;9.68;;;15.40;86.50;;;;;;4779211;30;20118;-58
2022/04/23 08:37:22;;;;;;;14.52;9.15;;;15.10;86.50;;;;;;4795297;30;20062;-58
2022/04/23 08:39:48;;;;;;;17.65;9.60;;;15.30;85.60;;;;;;4781180;30;20063;-58
2022/04/23 08:42:16;;;;;;;31.95;10.20;;;15.40;85.40;;;;;;4765828;30;20043;-58
2022/04/23 08:44:45;;;;;;;28.15;10.52;;;15.30;79.00;;;;;;4781038;30;20387;-57
2022/04/23 08:47:11;;;;;;;24.65;9.75;;;15.60;83.10;;;;;;4765818;30;20083;-58
2022/04/23 08:49:41;;;;;;;18.70;10.02;;;15.30;67.30;;;;;;4781255;30;20055;-58
2022/04/23 08:52:12;;;;;;;16.13;9.90;;;15.60;68.20;;;;;;4781574;30;20114;-58
2022/04/23 08:54:39;;;;;;;18.08;9.73;;;15.20;68.10;;;;;;4781577;30;20093;-58
2022/04/23 08:57:05;;;;;;;15.82;9.63;;;15.40;85.60;;;;;;4781552;30;20043;-58
2022/04/23 08:59:31;;;;;;;17.63;9.55;;;15.50;85.00;;;;;;4765920;30;20104;-58
2022/04/23 09:01:57;;;;;;;20.20;10.13;;;;;;;;;;4781921;30;20225;-57
2022/04/23 09:04:23;;;;;;;16.35;9.60;;;15.80;84.30;;;;;;4780713;30;20046;-58
2022/04/23 09:06:49;;;;;;;15.95;9.95;;;15.70;81.80;;;;;;4766089;30;20087;-58
2022/04/23 09:09:17;;;;;;;16.17;9.57;;;15.60;72.60;;;;;;4780948;30;20325;-58
2022/04/23 09:11:57;;;;;;;18.42;9.93;;;15.10;83.40;;;;;;4765887;30;20056;-57
2022/04/23 09:14:32;;;;;;;48.20;11.07;;;15.50;65.80;;;;;;4750409;30;20063;-57
2022/04/23 09:25:36;;;;;;;17.73;10.35;;;15.70;82.40;;;;;;4780816;30;20116;-58
2022/04/23 09:28:24;;;;;;;32.22;10.35;;;16.00;64.70;;;;;;4780963;30;20108;-60
2022/04/23 09:30:51;;;;;;;17.65;10.63;;;16.00;80.10;;;;;;4780629;30;20059;-58
2022/04/23 09:33:18;;;;;;;23.15;10.40;;;16.70;68.20;;;;;;4780270;30;20123;-58
2022/04/23 09:35:54;;;;;;;17.85;10.27;;;16.00;63.30;;;;;;4780997;30;20075;-58
2022/04/23 09:38:20;;;;;;;15.07;9.88;;;15.30;79.70;;;;;;4781631;30;20043;-58
2022/04/23 09:40:53;;;;;;;22.17;9.93;;;16.00;77.80;;;;;;4782242;30;20101;-58
2022/04/23 09:43:28;;;;;;;17.65;10.25;;;16.00;80.30;;;;;;4782039;30;20047;-58
2022/04/23 09:46:21;;;;;;;22.52;10.88;;;15.70;79.60;;;;;;4781885;30;20112;-58
2022/04/23 09:49:03;;;;;;;22.77;10.20;;;15.90;80.40;;;;;;4778479;30;20066;-58
2022/04/23 09:51:28;;;;;;;16.95;10.35;;;16.00;81.20;;;;;;4749710;30;20330;-58
2022/04/23 09:53:55;;;;;;;13.52;9.90;;;16.00;82.00;;;;;;4782031;30;20054;-57
2022/04/23 09:56:22;;;;;;;15.75;10.43;;;16.10;63.30;;;;;;4765815;30;20389;-59
2022/04/23 09:58:48;;;;;;;19.83;10.48;;;;;;;;;;4765630;30;20060;-58
2022/04/23 10:01:17;;;;;;;23.88;10.75;;;16.20;61.60;;;;;;4765622;30;20058;-58
2022/04/23 10:03:53;;;;;;;21.15;10.40;;;16.10;79.10;;;;;;4766400;30;20352;-58
2022/04/23 10:06:20;;;;;;;15.18;10.10;;;16.20;78.70;;;;;;4781155;30;20300;-58
2022/04/23 10:08:49;;;;;;;30.00;10.50;;;16.10;78.80;;;;;;4781477;30;20051;-58
2022/04/23 10:11:18;;;;;;;24.02;10.20;;;16.10;78.90;;;;;;4750967;30;20062;-58
2022/04/23 10:13:45;;;;;;;17.23;10.30;;;16.10;78.60;;;;;;4781571;30;20056;-58
2022/04/23 10:16:12;;;;;;;14.60;9.80;;;16.10;78.40;;;;;;4780529;30;20092;-58
2022/04/23 10:18:39;;;;;;;14.05;10.15;;;16.30;74.30;;;;;;4765366;30;20035;-57
2022/04/23 10:21:09;;;;;;;33.95;10.20;;;16.20;77.70;;;;;;4781430;30;20065;-58
2022/04/23 10:23:58;;;;;;;21.27;10.00;;;16.20;76.80;;;;;;4781577;30;20055;-58
2022/04/23 10:26:34;;;;;;;26.20;9.80;;;16.40;77.00;;;;;;4781140;30;20050;-58
2022/04/23 10:29:14;;;;;;;16.08;9.70;;;16.50;65.00;;;;;;4765655;30;20112;-58
2022/04/23 10:31:41;;;;;;;16.35;9.98;;;16.40;76.30;;;;;;4781524;30;20063;-59
2022/04/23 10:34:33;;;;;;;30.25;10.20;;;16.80;59.10;;;;;;4780836;30;20353;-59
2022/04/23 10:37:20;;;;;;;18.42;9.23;;;16.90;58.50;;;;;;4781222;30;20056;-59
2022/04/23 10:40:17;;;;;;;20.60;10.65;;;17.10;74.50;;;;;;4781518;30;20039;-58
2022/04/23 10:43:12;;;;;;;62.25;13.43;;;16.70;73.40;;;;;;4774187;30;20229;-58
2022/04/23 10:45:40;;;;;;;17.98;9.95;;;16.80;58.10;;;;;;4781156;30;20118;-59
2022/04/23 10:48:24;;;;;;;19.00;9.25;;;17.00;73.10;;;;;;4781145;30;20321;-58
2022/04/23 10:50:59;;;;;;;31.48;10.10;;;16.40;71.80;;;;;;4779702;30;20157;-59
2022/04/23 10:53:37;;;;;;;;;;;16.80;55.60;;;;;;4781197;30;20075;-59
2022/04/23 10:56:21;;;;;;;14.93;9.10;;;16.70;72.60;;;;;;4781207;30;19918;-59
2022/04/23 10:58:47;;;;;;;21.52;9.25;;;16.80;72.20;;;;;;4764742;30;20047;-59
2022/04/23 11:01:22;;;;;;;27.15;9.75;;;17.70;70.80;;;;;;4780960;30;20086;-59
2022/04/23 11:04:06;;;;;;;13.57;9.00;;;16.60;71.70;;;;;;4780380;30;20051;-59
2022/04/23 11:12:22;;;;;;;18.75;9.50;;;18.00;71.90;;;;;;4780467;30;20075;-60
2022/04/23 11:14:53;;;;;;;16.38;9.10;;;17.50;55.50;;;;;;4763108;30;20080;-59
2022/04/23 11:17:24;;;;;;;12.88;9.23;;;17.50;70.80;;;;;;4746758;30;20344;-59
2022/04/23 11:19:53;;;;;;;27.00;9.13;;;17.90;70.10;;;;;;4762605;30;20052;-59
2022/04/23 11:22:23;;;;;;;22.50;9.52;;;17.70;58.30;;;;;;4761173;30;20443;-60
2022/04/23 11:24:50;;;;;;;17.83;9.40;;;17.70;66.80;;;;;;4732569;30;20052;-59
2022/04/23 11:27:26;;;;;;;16.75;9.55;;;16.80;69.30;;;;;;4756705;30;20131;-59
2022/04/23 11:29:52;;;;;;;148.20;18.25;;;16.70;58.00;;;;;;4761177;30;20055;-59
2022/04/23 11:32:32;;;;;;;260.20;29.73;;;17.40;54.00;;;;;;4760667;30;20106;-59
2022/04/23 11:35:00;;;;;;;183.77;22.27;;;17.60;54.00;;;;;;4761815;30;20056;-59
2022/04/23 11:37:33;;;;;;;13.38;9.13;;;17.40;69.80;;;;;;4760530;30;20083;-59
2022/04/23 11:40:09;;;;;;;14.98;9.80;;;17.40;69.00;;;;;;4746142;30;20059;-59
2022/04/23 11:42:46;;;;;;;14.55;8.60;;;17.50;53.70;;;;;;4759571;30;20090;-59
2022/04/23 11:45:14;;;;;;;45.10;9.43;;;17.70;68.70;;;;;;4760743;30;20047;-59
2022/04/23 11:47:40;;;;;;;11.82;8.57;;;17.50;68.90;;;;;;4760815;30;20044;-58
2022/04/23 11:50:13;;;;;;;12.18;8.35;;;17.20;68.30;;;;;;4745698;30;20086;-58
2022/04/23 11:52:43;;;;;;;16.27;7.53;;;18.20;69.50;;;;;;4758903;30;20059;-58
2022/04/23 11:55:21;;;;;;;8.38;7.15;;;16.90;63.70;;;;;;4761349;30;20059;-58
2022/04/23 11:57:57;;;;;;;33.90;8.45;;;17.80;51.60;;;;;;4760517;30;20052;-58
2022/04/23 12:00:24;;;;;;;13.73;7.30;;;18.60;67.10;;;;;;4745216;30;20115;-58
2022/04/23 12:05:58;;;;;;;11.57;6.78;;;18.80;66.20;;;;;;4688827;24;20056;-62
2022/04/23 12:08:23;;;;;;;10.10;7.20;;;18.50;66.00;;;;;;4752618;30;20061;-62
2022/04/23 12:10:49;;;;;;;9.25;7.07;;;18.20;63.30;;;;;;4749379;30;20417;-64
2022/04/23 12:13:18;;;;;;;9.32;6.32;;;;;;;;;;4726755;30;20441;-62
2022/04/23 12:15:46;;;;;;;12.20;6.78;;;18.50;63.90;;;;;;4730724;30;20063;-62
2022/04/23 12:18:18;;;;;;;13.13;7.25;;;18.40;63.40;;;;;;4754280;30;20135;-62
2022/04/23 12:20:44;;;;;;;8.13;6.93;;;18.70;59.70;;;;;;4754538;30;20067;-63
2022/04/23 12:23:09;;;;;;;10.02;7.53;;;18.50;54.50;;;;;;4741810;30;20056;-63
2022/04/23 12:25:37;;;;;;;24.35;6.93;;;18.40;63.40;;;;;;4737294;30;20048;-64
2022/04/23 12:42:26;;;;;;;22.77;7.93;;;18.10;61.10;;;;;;4727317;30;20052;-64
2022/04/23 12:44:53;;;;;;;12.93;7.07;;;18.20;61.20;;;;;;4727309;30;20582;-64
2022/04/23 12:47:35;;;;;;;20.80;6.35;;;17.90;46.40;;;;;;4736182;30;20079;-64
2022/04/23 12:50:07;;;;;;;14.95;6.30;;;18.00;60.40;;;;;;4721092;30;20139;-64
2022/04/23 12:52:41;;;;;;;9.23;5.80;;;18.60;47.60;;;;;;4735511;30;20056;-64
2022/04/23 12:55:30;;;;;;;10.63;6.30;;;18.50;59.60;;;;;;4719856;30;20048;-64
2022/04/23 12:58:06;;;;;;;10.90;5.85;;;18.40;59.50;;;;;;4735891;30;20048;-64
2022/04/23 13:00:36;;;;;;;12.55;6.03;;;18.80;59.50;;;;;;4721169;30;20056;-64
2022/04/23 13:03:24;;;;;;;15.15;6.57;;;18.80;58.40;;;;;;4735755;30;20052;-64
2022/04/23 13:05:50;;;;;;;14.32;5.97;;;18.40;59.40;;;;;;4750768;30;20082;-64
2022/04/23 13:11:24;;;;;;;27.48;6.93;;;18.60;57.60;;;;;;4741972;30;20075;-64
2022/04/23 13:13:45;;;;;;;10.75;5.53;;;;;;;;;;4745226;30;20044;-65
2022/04/23 13:16:11;;;;;;;13.50;6.10;;;;;;;;;;4737530;30;20114;-64
2022/04/23 13:18:38;;;;;;;9.60;6.03;;;;;;;;;;4737475;30;20060;-64
2022/04/23 13:21:05;;;;;;;9.65;6.00;;;18.90;43.70;;;;;;4736115;30;20060;-64
2022/04/23 13:23:34;;;;;;;15.63;6.47;;;18.80;51.10;;;;;;4737149;30;20492;-64
2022/04/23 13:26:00;;;;;;;14.07;5.75;;;;;;;;;;4736914;30;20064;-64
2022/04/23 13:28:25;;;;;;;12.98;6.18;;;19.00;57.90;;;;;;4737621;30;20044;-64
2022/04/23 13:30:54;;;;;;;12.80;6.40;;;19.00;46.50;;;;;;4737217;30;20063;-64